Portada
METAR-TAF:

METAR-TAF

Aeroports :

Siegen, Alemanya

latitud: 50-42-28N, longitud: 008-04-59E, altitud: 602 m

Observació

L'informe es va fer fa 21 minuts, a les 12:20 UTC
Vent 8 kt del Oest/Nord-Oest
Temperatura 20°C
Humitat 60%
Pressió 1023 hPa
Visibilitat 10 km o més
Núvols disperses a una alçada de 3200 ft

METAR: EDGS 211220Z 29008KT 9999 SCT032 20/12 Q1023

Hora: 14:41 (12:41 UTC)

Pronòstic

L'informe es va fer fa 1 hora i 41 minuts, a les 11:00 UTC
Pronòstic vàlid del 21 a les 12 UTC al 21 a les 21 UTC
Vent 9 kt del Oest
Visibilitat 10 km o més
sense núvols per sota de 1500 mi sense presència de cumulonimbus.
Evolucionant progressivament
l' 21 a les 18 UTC al 21 a les 21 UTC
Vent 3 kt amb direcció variable

TAF: EDGS 211100Z 2112/2121 28009KT CAVOK BECMG 2118/2121 VRB03KT

Observacions i pronòstics meteorològics de més de 4000 aeroports (METAR i TAF).

Les estacions disponibles són els punts grocs i vermells al mapa.

Posi el ratolí al punt desitjat per veure el nom de l'estació.

Feu clic per veure les observacions i els pronòstics meteorològics.

Per canviar el mapa: feu clic els botons verds amb una creu de color negre per apropar; al botó verd amb un guió per allunyar la imatge; o en les fletxes verdes per a mapes adjacents.


METAR-TAF: